In Rescue
 
Open Full Screen Window  High Contrast Mode
Wind Gusting 16 knots
12
November 29, 2022 10:46 AM EST
Weather Information
Wind Direction
  150 °
Wind Speed
  12 kt (14 mph)
Wind Gust
  16 kt (18 mph)
Altimeter
29.98 in
Visibility
10 SM
Temperature
08° C
46° F
Dewpoint
05° C
41° F
Humidity
82%
Sky Condition
Broken @ 3,400 ft
VFR

METAR KAXV 291546Z AUTO 15012G16KT 10SM BKN034 08/05 A2998 RMK AO2

FAA Disclaimer: The data displayed is for advisory purposes only and is not to be used for flight planning or operations.